Time;durP1;ratioP1;P1;durP2;ratioP2;P2;SDS_P1;SDS_P2;PMS_P1;PMS_P2;Temp;Humidity;BMP_temperature;BMP_pressure;BME280_temperature;BME280_humidity;BME280_pressure;Samples;Min_cycle;Max_cycle;Signal;HPM_P1;HPM_P2
2023/09/19 00:01:11;;;;;;;2.53;2.33;;;22.50;80.00;;;;;;5111622;27;20820;-76
2023/09/19 00:03:41;;;;;;;2.33;2.23;;;22.50;79.90;;;;;;5111310;28;20489;-76
2023/09/19 00:06:10;;;;;;;2.60;2.40;;;22.60;79.70;;;;;;5112625;28;20436;-77
2023/09/19 00:08:38;;;;;;;5.80;5.20;;;22.60;79.50;;;;;;5114105;28;20436;-76
2023/09/19 00:11:10;;;;;;;22.00;15.30;;;22.60;79.50;;;;;;5104526;27;20457;-76
2023/09/19 00:13:39;;;;;;;20.50;18.27;;;22.70;79.30;;;;;;5111184;28;20456;-75
2023/09/19 00:16:11;;;;;;;18.43;16.73;;;22.70;79.40;;;;;;5110383;28;20947;-76
2023/09/19 00:18:42;;;;;;;8.63;7.67;;;22.60;79.20;;;;;;5112921;28;20508;-76
2023/09/19 00:21:11;;;;;;;2.67;2.47;;;22.50;79.40;;;;;;5112672;27;20473;-75
2023/09/19 00:23:40;;;;;;;2.87;2.60;;;22.30;80.20;;;;;;5112278;28;20482;-76
2023/09/19 00:26:09;;;;;;;2.77;2.50;;;22.20;80.70;;;;;;5119125;27;20497;-76
2023/09/19 00:28:37;;;;;;;5.33;2.80;;;22.20;80.50;;;;;;5112865;28;20838;-76
2023/09/19 00:31:08;;;;;;;2.03;1.90;;;22.20;80.60;;;;;;5130319;27;20450;-76
2023/09/19 00:33:37;;;;;;;2.47;1.60;;;22.20;80.80;;;;;;5134498;27;20971;-76
2023/09/19 00:36:07;;;;;;;3.43;2.10;;;22.10;79.90;;;;;;5107430;28;20783;-76
2023/09/19 00:38:36;;;;;;;2.00;1.80;;;22.10;80.10;;;;;;5109232;28;20449;-76
2023/09/19 00:41:04;;;;;;;2.83;2.00;;;22.00;80.40;;;;;;5117537;27;20471;-76
2023/09/19 00:43:34;;;;;;;3.67;3.37;;;21.90;80.20;;;;;;5090784;28;20797;-75
2023/09/19 00:46:04;;;;;;;2.67;2.00;;;21.80;80.40;;;;;;5100801;28;21151;-75
2023/09/19 00:48:35;;;;;;;4.37;1.83;;;21.70;80.30;;;;;;5094917;28;20479;-75
2023/09/19 00:51:05;;;;;;;2.20;2.00;;;21.60;80.60;;;;;;5112260;28;20547;-75
2023/09/19 00:53:35;;;;;;;4.90;3.60;;;21.40;81.20;;;;;;5094742;28;20456;-75
2023/09/19 00:56:05;;;;;;;5.97;3.10;;;21.40;81.60;;;;;;5094820;28;20475;-75
2023/09/19 00:58:35;;;;;;;4.20;3.80;;;21.40;81.60;;;;;;5093582;28;20440;-75
2023/09/19 01:01:06;;;;;;;5.17;4.77;;;21.50;81.60;;;;;;5129063;27;20471;-75
2023/09/19 01:03:37;;;;;;;4.00;2.90;;;21.50;81.30;;;;;;5102162;28;20448;-75
2023/09/19 01:06:07;;;;;;;3.20;2.90;;;21.60;81.20;;;;;;5112710;28;20450;-75
2023/09/19 01:08:37;;;;;;;5.87;4.07;;;21.70;81.30;;;;;;5112615;28;20446;-75
2023/09/19 01:11:14;;;;;;;5.10;3.80;;;21.80;80.90;;;;;;5106285;27;20541;-75
2023/09/19 01:13:53;;;;;;;3.73;3.10;;;21.80;80.90;;;;;;5105373;28;20461;-75
2023/09/19 01:16:34;;;;;;;6.33;4.13;;;22.00;80.60;;;;;;5110200;28;20528;-76
2023/09/19 01:19:19;;;;;;;6.20;4.43;;;22.20;80.30;;;;;;5116165;27;20935;-76
2023/09/19 01:21:59;;;;;;;5.27;4.77;;;22.30;80.20;;;;;;5094065;28;20483;-76
2023/09/19 01:25:04;;;;;;;2.87;2.20;;;22.30;80.10;;;;;;5113058;28;20452;-76
2023/09/19 01:27:53;;;;;;;2.67;2.30;;;22.40;79.90;;;;;;5077517;28;20538;-77
2023/09/19 01:30:29;;;;;;;2.10;1.90;;;22.40;79.40;;;;;;5111479;28;20797;-76
2023/09/19 01:32:59;;;;;;;2.27;1.90;;;22.40;79.70;;;;;;5112549;28;20447;-76
2023/09/19 01:35:27;;;;;;;2.40;2.00;;;22.30;79.90;;;;;;5112257;28;20460;-76
2023/09/19 01:37:55;;;;;;;2.20;1.70;;;22.30;80.10;;;;;;5117866;27;20450;-75
2023/09/19 01:40:24;;;;;;;3.13;2.20;;;22.30;80.10;;;;;;5111936;28;20448;-76
2023/09/19 01:42:59;;;;;;;2.27;1.83;;;22.40;80.10;;;;;;5111420;28;20436;-76
2023/09/19 01:45:40;;;;;;;2.80;2.13;;;22.50;79.60;;;;;;5093804;28;20441;-76
2023/09/19 01:48:32;;;;;;;3.27;2.03;;;22.40;79.80;;;;;;5118030;27;20448;-76
2023/09/19 01:51:03;;;;;;;5.80;4.30;;;22.40;79.90;;;;;;5102666;28;20510;-76
2023/09/19 01:53:36;;;;;;;7.13;6.50;;;22.40;79.80;;;;;;5111680;28;20490;-76
2023/09/19 01:56:12;;;;;;;6.07;5.53;;;22.40;79.90;;;;;;5112604;28;20428;-76
2023/09/19 01:58:44;;;;;;;5.87;5.20;;;22.40;80.00;;;;;;5094331;28;20847;-75
2023/09/19 02:01:18;;;;;;;4.10;3.00;;;22.40;79.80;;;;;;5089910;28;20469;-76
2023/09/19 02:03:48;;;;;;;3.70;2.90;;;22.40;80.00;;;;;;5112454;28;20509;-76
2023/09/19 02:06:18;;;;;;;2.43;2.23;;;22.40;79.90;;;;;;5112074;28;20444;-75
2023/09/19 02:08:49;;;;;;;6.17;2.20;;;22.50;79.90;;;;;;5100621;28;20432;-76
2023/09/19 02:11:18;;;;;;;3.43;2.10;;;22.60;79.40;;;;;;5112031;28;20768;-75
2023/09/19 02:13:46;;;;;;;2.87;1.73;;;22.60;79.30;;;;;;5093278;28;20444;-75
2023/09/19 02:16:19;;;;;;;2.13;1.93;;;22.70;79.00;;;;;;5112020;28;20512;-75
2023/09/19 02:18:48;;;;;;;2.73;2.27;;;22.60;78.90;;;;;;5115931;27;20846;-75
2023/09/19 02:21:17;;;;;;;2.33;1.90;;;22.50;79.60;;;;;;5093415;28;20464;-75
2023/09/19 02:23:47;;;;;;;2.07;1.83;;;22.40;79.60;;;;;;5111518;28;20908;-76
2023/09/19 02:26:16;;;;;;;2.83;2.00;;;22.40;79.70;;;;;;5082512;28;20457;-75
2023/09/19 02:28:45;;;;;;;5.60;2.03;;;22.50;79.50;;;;;;5114180;28;20519;-75
2023/09/19 02:31:13;;;;;;;2.37;2.17;;;22.50;79.60;;;;;;5118594;28;20435;-75
2023/09/19 02:33:43;;;;;;;3.20;2.40;;;22.40;79.60;;;;;;5118653;28;20440;-76
2023/09/19 02:36:11;;;;;;;2.10;1.93;;;22.30;79.90;;;;;;5118380;28;20444;-76
2023/09/19 02:38:40;;;;;;;2.90;2.37;;;22.30;80.20;;;;;;5123220;27;20946;-76
2023/09/19 02:41:08;;;;;;;4.63;2.00;;;22.30;79.80;;;;;;5117671;28;20453;-76
2023/09/19 02:43:38;;;;;;;2.37;2.17;;;22.30;80.10;;;;;;5097246;28;20474;-75
2023/09/19 02:46:07;;;;;;;2.83;2.53;;;22.30;80.00;;;;;;5124420;27;20474;-75
2023/09/19 02:48:36;;;;;;;3.37;1.70;;;22.30;80.20;;;;;;5117450;28;20447;-75
2023/09/19 02:51:05;;;;;;;2.50;1.90;;;22.30;80.20;;;;;;5099843;28;20945;-75
2023/09/19 02:53:34;;;;;;;1.80;1.70;;;22.30;80.10;;;;;;5118158;28;20769;-76
2023/09/19 02:56:03;;;;;;;1.90;1.80;;;22.30;80.20;;;;;;5125300;27;20497;-76
2023/09/19 02:58:35;;;;;;;8.30;2.17;;;22.20;80.30;;;;;;5098349;28;20445;-76
2023/09/19 03:01:11;;;;;;;3.43;2.33;;;22.20;80.20;;;;;;5100016;28;20491;-76
2023/09/19 03:03:40;;;;;;;3.20;2.00;;;22.10;80.20;;;;;;5118039;28;20489;-76
2023/09/19 03:06:10;;;;;;;2.30;2.10;;;22.10;80.50;;;;;;5110437;27;20881;-76
2023/09/19 03:08:39;;;;;;;4.00;2.53;;;22.20;80.20;;;;;;5095194;28;20449;-76
2023/09/19 03:11:11;;;;;;;4.80;1.87;;;22.10;80.10;;;;;;5110108;28;20460;-76
2023/09/19 03:13:42;;;;;;;3.47;2.47;;;22.10;80.10;;;;;;5097403;28;20448;-76
2023/09/19 03:16:14;;;;;;;3.70;2.40;;;22.10;80.30;;;;;;5093260;28;20463;-75
2023/09/19 03:18:43;;;;;;;3.23;2.93;;;22.10;80.50;;;;;;5106151;28;20549;-76
2023/09/19 03:21:14;;;;;;;7.20;5.00;;;22.20;80.30;;;;;;5118163;28;20489;-75
2023/09/19 03:23:43;;;;;;;4.73;3.30;;;22.20;79.90;;;;;;5118265;28;20468;-76
2023/09/19 03:26:12;;;;;;;4.77;4.33;;;22.20;80.10;;;;;;5100808;28;20448;-75
2023/09/19 03:28:41;;;;;;;5.77;5.13;;;22.20;80.00;;;;;;5097418;28;20460;-76
2023/09/19 03:31:10;;;;;;;9.27;8.47;;;22.20;80.30;;;;;;5118474;28;20507;-75
2023/09/19 03:33:39;;;;;;;7.00;6.33;;;22.30;79.90;;;;;;5099592;28;20460;-75
2023/09/19 03:36:07;;;;;;;5.87;4.60;;;22.30;79.80;;;;;;5108128;27;20489;-75
2023/09/19 03:38:37;;;;;;;4.10;3.70;;;22.30;79.90;;;;;;5099629;28;20452;-75
2023/09/19 03:41:05;;;;;;;3.70;2.70;;;22.30;79.70;;;;;;5113877;28;20460;-76
2023/09/19 03:43:36;;;;;;;2.40;2.20;;;22.30;79.90;;;;;;5095705;28;20995;-76
2023/09/19 03:46:07;;;;;;;3.87;2.20;;;22.20;80.10;;;;;;5107532;27;20975;-76
2023/09/19 03:48:36;;;;;;;4.00;3.33;;;22.20;79.70;;;;;;5107531;28;20458;-76
2023/09/19 03:51:04;;;;;;;7.37;3.43;;;22.20;79.90;;;;;;5114659;28;20939;-77
2023/09/19 03:53:33;;;;;;;8.20;5.53;;;22.10;80.10;;;;;;5078125;28;20489;-77
2023/09/19 03:56:02;;;;;;;3.13;2.93;;;22.10;80.10;;;;;;5106826;27;20456;-77
2023/09/19 03:58:37;;;;;;;5.03;4.43;;;22.00;80.10;;;;;;5094858;28;20547;-77
2023/09/19 04:01:06;;;;;;;6.27;5.67;;;22.00;80.40;;;;;;5114354;28;20440;-76
2023/09/19 04:03:45;;;;;;;9.67;8.73;;;21.90;80.40;;;;;;5112087;28;20471;-77
2023/09/19 04:06:14;;;;;;;13.57;12.17;;;21.90;80.30;;;;;;5087605;28;20472;-76
2023/09/19 04:08:43;;;;;;;7.27;6.30;;;21.90;80.30;;;;;;5092707;28;20448;-76
2023/09/19 04:11:14;;;;;;;5.10;4.20;;;21.90;80.60;;;;;;5114270;28;20436;-77
2023/09/19 04:13:42;;;;;;;3.40;2.93;;;21.80;80.10;;;;;;5113606;28;20431;-77
2023/09/19 04:16:11;;;;;;;4.57;4.13;;;21.80;80.70;;;;;;5110442;27;20444;-77
2023/09/19 04:18:39;;;;;;;3.10;2.90;;;21.80;80.20;;;;;;5113532;28;20471;-76
2023/09/19 04:21:09;;;;;;;2.73;2.13;;;21.90;80.20;;;;;;5087878;28;20459;-76
2023/09/19 04:23:37;;;;;;;2.60;2.40;;;21.90;80.30;;;;;;5103880;28;20472;-75
2023/09/19 04:26:06;;;;;;;2.93;2.23;;;22.00;80.30;;;;;;5093040;28;20939;-76
2023/09/19 04:28:38;;;;;;;3.93;2.20;;;22.10;79.50;;;;;;5091176;28;20472;-75
2023/09/19 04:31:08;;;;;;;3.83;2.70;;;22.00;79.90;;;;;;5092905;28;20445;-76
2023/09/19 04:33:36;;;;;;;2.53;2.33;;;22.00;79.80;;;;;;5093328;28;20504;-76
2023/09/19 04:36:07;;;;;;;3.60;2.33;;;21.90;80.00;;;;;;5094101;28;20449;-76
2023/09/19 04:38:55;;;;;;;2.50;2.20;;;21.90;80.30;;;;;;5080124;28;20453;-76
2023/09/19 04:41:24;;;;;;;2.10;1.90;;;21.80;80.10;;;;;;5085707;28;20458;-75
2023/09/19 04:43:55;;;;;;;3.80;2.77;;;21.90;80.30;;;;;;5081971;28;20702;-76
2023/09/19 04:46:23;;;;;;;2.63;2.43;;;21.90;80.00;;;;;;5089734;28;20483;-76
2023/09/19 04:48:52;;;;;;;4.07;2.63;;;21.80;80.10;;;;;;5090513;28;20991;-77
2023/09/19 04:51:20;;;;;;;2.57;1.90;;;21.80;80.40;;;;;;5086464;28;20444;-77
2023/09/19 04:53:49;;;;;;;2.23;2.03;;;21.80;80.20;;;;;;5085920;28;20452;-76
2023/09/19 04:56:17;;;;;;;3.27;2.27;;;21.80;80.10;;;;;;5088060;28;20453;-76
2023/09/19 04:58:45;;;;;;;4.03;2.47;;;21.90;79.90;;;;;;5082451;28;20567;-75
2023/09/19 05:01:17;;;;;;;2.00;1.90;;;21.90;79.80;;;;;;5080199;28;20456;-74
2023/09/19 05:03:49;;;;;;;2.63;2.30;;;21.90;80.30;;;;;;5091563;28;20853;-75
2023/09/19 05:06:17;;;;;;;2.30;2.10;;;22.00;80.00;;;;;;5087980;28;20452;-75
2023/09/19 05:08:45;;;;;;;5.43;2.00;;;22.00;80.10;;;;;;5085719;28;20456;-75
2023/09/19 05:11:14;;;;;;;2.70;2.50;;;22.00;80.10;;;;;;5087190;28;20483;-75
2023/09/19 05:13:43;;;;;;;4.47;2.10;;;22.10;79.90;;;;;;5085098;28;20446;-75
2023/09/19 05:16:12;;;;;;;2.47;2.13;;;22.00;79.70;;;;;;5080547;28;22126;-76
2023/09/19 05:18:42;;;;;;;2.87;1.93;;;22.00;79.90;;;;;;5079886;28;20852;-75
2023/09/19 05:21:10;;;;;;;2.13;1.93;;;21.90;79.90;;;;;;5077141;28;20450;-75
2023/09/19 05:23:38;;;;;;;2.80;2.07;;;21.90;80.40;;;;;;5098739;27;21055;-75
2023/09/19 05:26:07;;;;;;;2.77;2.03;;;21.90;79.80;;;;;;5096573;27;20458;-75
2023/09/19 05:28:35;;;;;;;4.60;2.20;;;21.90;79.80;;;;;;5092979;27;20465;-75
2023/09/19 05:31:04;;;;;;;2.57;1.97;;;22.00;79.70;;;;;;5098206;28;20864;-75
2023/09/19 05:33:33;;;;;;;3.37;2.63;;;21.90;80.10;;;;;;5111139;27;20478;-75
2023/09/19 05:36:02;;;;;;;6.83;3.17;;;21.90;80.00;;;;;;5098728;28;20456;-75
2023/09/19 05:38:32;;;;;;;2.70;2.50;;;21.90;80.30;;;;;;5102711;27;20809;-75
2023/09/19 05:41:02;;;;;;;2.80;2.53;;;22.00;80.20;;;;;;5096424;27;20463;-75
2023/09/19 05:43:31;;;;;;;2.23;2.03;;;22.10;79.80;;;;;;5094193;28;20461;-75
2023/09/19 05:46:01;;;;;;;2.10;2.00;;;22.10;79.60;;;;;;5097852;28;21008;-75
2023/09/19 05:48:31;;;;;;;2.43;2.23;;;22.10;79.30;;;;;;5095906;28;20460;-76
2023/09/19 05:51:00;;;;;;;2.30;2.10;;;22.10;79.70;;;;;;5105510;27;21092;-76
2023/09/19 05:53:30;;;;;;;3.23;1.50;;;22.10;79.50;;;;;;5102167;28;20947;-76
2023/09/19 05:56:00;;;;;;;3.53;2.00;;;22.20;79.30;;;;;;5083498;28;20868;-76
2023/09/19 05:58:29;;;;;;;3.67;1.93;;;22.20;78.90;;;;;;5090760;28;20539;-76
2023/09/19 06:00:57;;;;;;;2.40;1.80;;;22.20;79.10;;;;;;5102985;28;20488;-76
2023/09/19 06:03:26;;;;;;;2.40;2.10;;;22.20;78.80;;;;;;5102685;28;20940;-76
2023/09/19 06:05:57;;;;;;;7.90;3.40;;;22.20;79.40;;;;;;5090913;27;20456;-76
2023/09/19 06:08:25;;;;;;;3.47;2.10;;;22.10;78.80;;;;;;5096219;28;20444;-76
2023/09/19 06:10:55;;;;;;;4.20;2.67;;;21.80;79.30;;;;;;5091547;27;20449;-76
2023/09/19 06:13:26;;;;;;;3.50;2.70;;;21.50;79.30;;;;;;5107163;28;20444;-75
2023/09/19 06:15:56;;;;;;;2.70;1.93;;;21.20;80.20;;;;;;5092454;27;21226;-76
2023/09/19 06:18:26;;;;;;;3.37;2.20;;;21.00;80.00;;;;;;5100176;27;20463;-76
2023/09/19 06:20:55;;;;;;;3.27;2.77;;;20.90;82.60;;;;;;5111787;28;20535;-77
2023/09/19 06:23:24;;;;;;;5.60;3.00;;;21.00;81.90;;;;;;5111094;28;20487;-76
2023/09/19 06:25:53;;;;;;;4.27;2.73;;;21.20;81.40;;;;;;5108501;28;20526;-75
2023/09/19 06:28:25;;;;;;;1.90;1.57;;;21.30;80.60;;;;;;5108003;28;20542;-75
2023/09/19 06:30:54;;;;;;;2.03;1.80;;;21.30;81.10;;;;;;5104455;28;21420;-76
2023/09/19 06:33:22;;;;;;;4.53;1.70;;;21.20;79.40;;;;;;5102830;28;20457;-75
2023/09/19 06:35:58;;;;;;;1.43;1.30;;;21.00;80.20;;;;;;5109636;28;20447;-76
2023/09/19 06:38:27;;;;;;;2.77;1.90;;;20.90;80.90;;;;;;5109832;28;20931;-75
2023/09/19 06:40:55;;;;;;;2.97;2.67;;;20.90;81.00;;;;;;5109493;28;20431;-75
2023/09/19 06:43:25;;;;;;;3.00;2.53;;;21.00;80.60;;;;;;5108078;28;20856;-75
2023/09/19 06:45:55;;;;;;;5.43;3.10;;;20.90;80.70;;;;;;5109579;28;20423;-75
2023/09/19 06:48:26;;;;;;;2.97;2.57;;;20.90;80.50;;;;;;5109058;28;20444;-75
2023/09/19 06:50:55;;;;;;;5.33;4.23;;;21.00;79.90;;;;;;5111337;28;20787;-75
2023/09/19 06:53:24;;;;;;;4.80;3.90;;;20.90;80.10;;;;;;5121829;28;20459;-75
2023/09/19 06:55:53;;;;;;;4.27;3.87;;;20.90;80.20;;;;;;5110348;28;21000;-75
2023/09/19 06:58:21;;;;;;;5.60;5.20;;;20.70;80.30;;;;;;5109069;28;20815;-75
2023/09/19 07:00:51;;;;;;;8.20;6.80;;;20.50;80.20;;;;;;5106141;28;20526;-75
2023/09/19 07:03:21;;;;;;;11.80;9.80;;;20.40;81.60;;;;;;5110417;28;20919;-75
2023/09/19 07:05:49;;;;;;;7.23;6.30;;;20.40;81.50;;;;;;5106997;28;20445;-75
2023/09/19 07:08:19;;;;;;;9.27;8.67;;;20.40;81.60;;;;;;5110900;28;20483;-75
2023/09/19 07:10:49;;;;;;;9.43;8.33;;;20.40;81.80;;;;;;5110431;28;20474;-75
2023/09/19 07:13:18;;;;;;;4.30;3.90;;;20.50;81.40;;;;;;5109326;28;20429;-75
2023/09/19 07:15:50;;;;;;;4.93;4.50;;;20.50;81.30;;;;;;5112856;28;20492;-76
2023/09/19 07:18:20;;;;;;;3.67;2.30;;;20.50;81.70;;;;;;5111746;28;20434;-75
2023/09/19 07:20:51;;;;;;;8.53;7.80;;;20.60;81.50;;;;;;5113929;28;20434;-75
2023/09/19 07:23:22;;;;;;;3.40;3.00;;;20.70;81.40;;;;;;5110726;28;20467;-75
2023/09/19 07:25:50;;;;;;;7.60;4.33;;;20.70;80.80;;;;;;5109711;28;20467;-75
2023/09/19 07:28:19;;;;;;;5.57;4.47;;;20.70;81.10;;;;;;5113708;28;20435;-76
2023/09/19 07:30:47;;;;;;;6.87;5.17;;;20.80;81.20;;;;;;5114920;28;20475;-75
2023/09/19 07:33:15;;;;;;;6.67;4.40;;;20.90;81.20;;;;;;5113852;28;21060;-75
2023/09/19 07:35:48;;;;;;;10.10;8.30;;;20.90;81.40;;;;;;5109338;28;20526;-75
2023/09/19 07:38:17;;;;;;;5.27;4.77;;;20.80;80.50;;;;;;5114649;28;20424;-75
2023/09/19 07:40:45;;;;;;;2.90;2.33;;;20.80;81.40;;;;;;5114741;28;20898;-75
2023/09/19 07:43:14;;;;;;;2.00;1.90;;;20.70;81.00;;;;;;5095320;28;20500;-75
2023/09/19 07:45:43;;;;;;;1.43;1.33;;;20.70;80.80;;;;;;5114152;28;21065;-75
2023/09/19 07:48:14;;;;;;;1.90;1.30;;;20.70;80.60;;;;;;5114484;28;20926;-75
2023/09/19 07:50:44;;;;;;;2.07;1.97;;;20.80;80.10;;;;;;5114203;28;20826;-75
2023/09/19 07:53:15;;;;;;;2.20;1.50;;;20.80;80.20;;;;;;5101743;28;20525;-75
2023/09/19 07:55:47;;;;;;;2.80;1.60;;;21.00;80.90;;;;;;5093900;28;20440;-76
2023/09/19 07:58:16;;;;;;;2.53;1.60;;;21.10;79.90;;;;;;5093397;27;20454;-75
2023/09/19 08:00:45;;;;;;;1.73;1.23;;;21.20;80.00;;;;;;5110446;28;20482;-75
2023/09/19 08:03:14;;;;;;;2.80;1.40;;;21.20;79.20;;;;;;5113493;28;20549;-75
2023/09/19 08:05:45;;;;;;;1.77;1.67;;;21.30;79.10;;;;;;5113890;28;20817;-76
2023/09/19 08:08:15;;;;;;;3.53;1.63;;;21.30;79.20;;;;;;5111145;28;20480;-75
2023/09/19 08:10:45;;;;;;;1.60;1.50;;;21.30;78.80;;;;;;5113148;28;20447;-75
2023/09/19 08:13:17;;;;;;;1.27;1.17;;;21.20;79.00;;;;;;5112784;28;21065;-75
2023/09/19 08:15:45;;;;;;;1.27;1.17;;;21.20;78.80;;;;;;5113409;28;20481;-75
2023/09/19 08:18:15;;;;;;;1.93;1.77;;;21.30;79.20;;;;;;5113110;28;20468;-75
2023/09/19 08:20:46;;;;;;;1.83;1.53;;;21.30;78.80;;;;;;5109731;28;20446;-75
2023/09/19 08:23:17;;;;;;;3.03;2.23;;;21.40;79.20;;;;;;5108690;28;20475;-75
2023/09/19 08:25:45;;;;;;;2.97;2.00;;;21.30;78.70;;;;;;5081211;28;20491;-75
2023/09/19 08:28:17;;;;;;;2.60;1.60;;;21.20;79.20;;;;;;5093187;28;20455;-76
2023/09/19 08:30:46;;;;;;;1.90;1.80;;;21.30;78.90;;;;;;5103387;28;20448;-75
2023/09/19 08:33:15;;;;;;;2.23;1.33;;;21.40;77.90;;;;;;5112802;28;20440;-75
2023/09/19 08:35:45;;;;;;;1.90;1.67;;;21.40;78.00;;;;;;5093879;28;20465;-75
2023/09/19 08:38:15;;;;;;;1.23;1.17;;;21.50;77.00;;;;;;5093274;28;20437;-75
2023/09/19 08:40:43;;;;;;;1.00;0.90;;;21.50;76.90;;;;;;5102181;28;20992;-75
2023/09/19 08:43:12;;;;;;;1.10;1.00;;;21.50;76.40;;;;;;5102538;28;20444;-75
2023/09/19 08:45:41;;;;;;;3.07;2.00;;;21.50;76.30;;;;;;5074760;28;20860;-75
2023/09/19 08:48:21;;;;;;;2.93;1.80;;;21.50;75.70;;;;;;5092915;28;20438;-75
2023/09/19 08:50:52;;;;;;;1.77;1.20;;;21.60;76.00;;;;;;5113125;28;20439;-75
2023/09/19 08:53:29;;;;;;;1.30;1.20;;;21.60;76.50;;;;;;5113356;28;20418;-75
2023/09/19 08:55:57;;;;;;;1.40;1.30;;;21.70;76.10;;;;;;5113130;28;20967;-75
2023/09/19 08:58:31;;;;;;;0.80;0.80;;;21.80;76.10;;;;;;5110256;28;20451;-75
2023/09/19 09:01:01;;;;;;;0.83;0.70;;;22.00;75.30;;;;;;5111422;28;20455;-75
2023/09/19 09:03:34;;;;;;;0.80;0.80;;;22.00;74.40;;;;;;5111126;28;20427;-75
2023/09/19 09:06:03;;;;;;;1.07;0.97;;;22.00;74.60;;;;;;5112378;28;20456;-75
2023/09/19 09:08:33;;;;;;;1.20;0.83;;;21.90;73.70;;;;;;5112251;28;20504;-75
2023/09/19 09:11:02;;;;;;;3.20;0.73;;;21.90;74.50;;;;;;5112403;28;20462;-75
2023/09/19 09:13:31;;;;;;;1.03;0.97;;;21.90;74.90;;;;;;5093334;28;20765;-75
2023/09/19 09:15:59;;;;;;;0.73;0.73;;;22.00;74.00;;;;;;5112591;28;20462;-75
2023/09/19 09:18:29;;;;;;;1.50;0.90;;;22.10;74.00;;;;;;5112727;28;20424;-75
2023/09/19 09:20:58;;;;;;;1.50;1.10;;;22.20;73.90;;;;;;5112344;28;20530;-75
2023/09/19 09:23:29;;;;;;;0.87;0.87;;;22.20;73.60;;;;;;5111693;28;20527;-75
2023/09/19 09:26:02;;;;;;;1.03;0.93;;;22.10;73.30;;;;;;5103727;28;21232;-75
2023/09/19 09:28:33;;;;;;;1.33;1.23;;;22.00;73.50;;;;;;5090022;28;20418;-75
2023/09/19 09:31:02;;;;;;;1.00;0.83;;;22.00;73.70;;;;;;5091174;28;20430;-75
2023/09/19 09:33:31;;;;;;;0.93;0.83;;;22.00;73.90;;;;;;5108691;28;20467;-75
2023/09/19 09:36:02;;;;;;;1.50;1.10;;;22.10;73.40;;;;;;5107498;28;20533;-75
2023/09/19 09:38:43;;;;;;;1.00;0.93;;;22.10;73.60;;;;;;5111315;28;20417;-75
2023/09/19 09:41:27;;;;;;;1.00;0.90;;;22.10;74.00;;;;;;5111291;28;20425;-75
2023/09/19 09:43:55;;;;;;;1.00;1.00;;;22.20;73.20;;;;;;5111580;28;20428;-75
2023/09/19 09:49:18;;;;;;;1.67;1.57;;;22.10;72.60;;;;;;5112274;28;20413;-75
2023/09/19 09:51:59;;;;;;;2.10;1.07;;;22.10;72.30;;;;;;5112049;28;20444;-75
2023/09/19 09:54:34;;;;;;;1.20;1.13;;;22.10;71.80;;;;;;5111740;28;20438;-75
2023/09/19 09:57:14;;;;;;;0.87;0.87;;;22.10;72.50;;;;;;5103559;28;20455;-75
2023/09/19 09:59:47;;;;;;;1.97;1.50;;;22.10;72.20;;;;;;5100697;28;20486;-75
2023/09/19 10:02:20;;;;;;;1.60;1.20;;;22.10;72.80;;;;;;5101138;28;20453;-75
2023/09/19 10:05:09;;;;;;;1.07;0.87;;;22.20;72.20;;;;;;5093505;27;20455;-75
2023/09/19 10:07:41;;;;;;;1.27;1.27;;;22.20;72.10;;;;;;5111710;28;20431;-75
2023/09/19 10:10:21;;;;;;;1.30;0.87;;;22.30;72.50;;;;;;5111645;28;20990;-75
2023/09/19 10:12:56;;;;;;;0.90;0.90;;;22.40;72.60;;;;;;5110469;28;20474;-75
2023/09/19 10:15:31;;;;;;;1.73;1.00;;;22.50;71.90;;;;;;5111484;28;20438;-75
2023/09/19 10:18:08;;;;;;;1.30;1.20;;;22.50;72.20;;;;;;5102997;28;20493;-75
2023/09/19 10:20:38;;;;;;;3.40;1.13;;;22.50;71.80;;;;;;5099542;28;20988;-75
2023/09/19 10:23:12;;;;;;;1.00;1.00;;;22.50;72.00;;;;;;5107831;28;20490;-75
2023/09/19 10:25:42;;;;;;;0.90;0.90;;;22.80;71.40;;;;;;5090769;28;20465;-75
2023/09/19 10:28:14;;;;;;;1.23;1.13;;;22.90;69.90;;;;;;5090325;28;20458;-75
2023/09/19 10:30:44;;;;;;;0.90;0.90;;;22.80;69.70;;;;;;5105895;28;20449;-75
2023/09/19 10:33:15;;;;;;;1.43;0.90;;;22.70;70.00;;;;;;5103018;28;20984;-75
2023/09/19 10:35:45;;;;;;;1.10;0.80;;;22.70;69.40;;;;;;5107113;28;20481;-74
2023/09/19 10:38:15;;;;;;;0.90;0.90;;;22.60;68.80;;;;;;5105815;28;20577;-73
2023/09/19 10:40:50;;;;;;;0.97;0.87;;;22.70;68.40;;;;;;5112244;28;20455;-74
2023/09/19 10:43:21;;;;;;;1.30;1.20;;;22.60;68.00;;;;;;5087241;28;20473;-75
2023/09/19 10:45:52;;;;;;;0.80;0.80;;;22.70;68.10;;;;;;5109879;28;20484;-76
2023/09/19 10:48:25;;;;;;;1.33;0.90;;;22.90;68.30;;;;;;5107850;28;20451;-75
2023/09/19 10:51:04;;;;;;;1.40;1.30;;;23.20;67.70;;;;;;5110731;28;20436;-75
2023/09/19 10:53:44;;;;;;;1.30;1.20;;;23.60;67.10;;;;;;5114495;28;20443;-75
2023/09/19 10:56:20;;;;;;;1.20;1.10;;;23.90;64.90;;;;;;5113907;28;20440;-75
2023/09/19 10:58:51;;;;;;;1.30;1.10;;;24.10;64.40;;;;;;5114336;28;20498;-75
2023/09/19 11:01:21;;;;;;;1.97;1.00;;;24.30;64.00;;;;;;5114339;28;20509;-76
2023/09/19 11:04:10;;;;;;;0.80;0.80;;;24.30;63.20;;;;;;5111577;28;20454;-76
2023/09/19 11:06:41;;;;;;;1.23;1.03;;;24.40;63.30;;;;;;5105527;28;20466;-77
2023/09/19 11:11:55;;;;;;;1.20;1.10;;;24.60;63.80;;;;;;5114169;28;20437;-77
2023/09/19 11:14:43;;;;;;;1.37;1.27;;;24.70;62.40;;;;;;5111280;28;20941;-77
2023/09/19 11:17:42;;;;;;;1.20;1.10;;;24.90;62.90;;;;;;5093393;28;21493;-77
2023/09/19 11:20:41;;;;;;;1.27;1.03;;;25.00;62.40;;;;;;5109968;28;20516;-77
2023/09/19 11:23:18;;;;;;;0.90;0.90;;;25.20;61.60;;;;;;5105450;28;21017;-76
2023/09/19 11:25:49;;;;;;;1.20;1.10;;;25.20;60.80;;;;;;5109954;28;20452;-77
2023/09/19 11:28:39;;;;;;;1.33;1.20;;;25.30;61.50;;;;;;5108780;28;20470;-76
2023/09/19 11:31:53;;;;;;;1.40;1.30;;;25.50;60.40;;;;;;5105296;28;20452;-77
2023/09/19 11:34:44;;;;;;;1.27;1.17;;;25.50;60.00;;;;;;5111289;28;20447;-77
2023/09/19 11:38:15;;;;;;;2.30;1.70;;;25.50;60.10;;;;;;5110861;28;20452;-77
2023/09/19 11:40:55;;;;;;;1.73;1.20;;;25.30;62.10;;;;;;5102814;27;20453;-78
2023/09/19 11:43:34;;;;;;;1.77;1.67;;;25.10;61.20;;;;;;5100268;28;20456;-78
2023/09/19 11:46:22;;;;;;;1.17;1.07;;;25.00;61.10;;;;;;5105822;27;20465;-76
2023/09/19 11:48:51;;;;;;;1.50;1.40;;;25.20;61.30;;;;;;5106780;28;20454;-76
2023/09/19 11:51:26;;;;;;;1.57;1.47;;;25.30;61.50;;;;;;5106005;28;20460;-76
2023/09/19 11:53:56;;;;;;;1.00;1.00;;;25.50;61.00;;;;;;5111011;28;20807;-76
2023/09/19 11:56:27;;;;;;;1.57;1.47;;;25.60;60.60;;;;;;5104320;28;20450;-76
2023/09/19 11:58:57;;;;;;;2.40;1.83;;;25.70;59.90;;;;;;5103191;28;20462;-80
2023/09/19 12:01:32;;;;;;;1.13;1.13;;;25.70;58.80;;;;;;5104653;27;20489;-79
2023/09/19 12:04:04;;;;;;;1.10;1.00;;;25.80;59.60;;;;;;5093543;27;20449;-78
2023/09/19 12:06:38;;;;;;;3.80;1.10;;;25.90;57.90;;;;;;5111337;27;20531;-78
2023/09/19 12:09:10;;;;;;;1.10;1.00;;;26.00;57.50;;;;;;5101159;27;20479;-79
2023/09/19 12:11:44;;;;;;;0.80;0.80;;;26.00;57.70;;;;;;5103374;28;20456;-79
2023/09/19 12:14:22;;;;;;;1.10;1.00;;;25.90;57.50;;;;;;5105784;27;20508;-78
2023/09/19 12:16:55;;;;;;;1.47;1.30;;;25.70;57.20;;;;;;5105575;27;20458;-78
2023/09/19 12:19:24;;;;;;;2.20;1.37;;;25.70;57.60;;;;;;5100826;27;20850;-78
2023/09/19 12:21:59;;;;;;;1.70;1.60;;;25.80;58.10;;;;;;5082983;28;20485;-78
2023/09/19 12:24:30;;;;;;;3.60;1.33;;;25.80;58.80;;;;;;5124175;27;20501;-77
2023/09/19 12:27:07;;;;;;;1.90;1.20;;;25.90;58.10;;;;;;5119109;27;21382;-78
2023/09/19 12:29:45;;;;;;;1.13;1.13;;;25.90;58.50;;;;;;5114556;27;20927;-78
2023/09/19 12:32:16;;;;;;;1.47;1.30;;;26.00;58.00;;;;;;5102365;28;20642;-78
2023/09/19 12:34:52;;;;;;;1.20;1.10;;;26.10;57.60;;;;;;5101403;28;21032;-78
2023/09/19 12:37:29;;;;;;;2.10;1.30;;;26.20;57.10;;;;;;5090841;28;20447;-77
2023/09/19 12:40:15;;;;;;;1.60;1.20;;;26.30;57.40;;;;;;5098435;28;20461;-77
2023/09/19 12:42:48;;;;;;;1.17;1.10;;;26.30;57.20;;;;;;5109328;28;20470;-77
2023/09/19 12:45:18;;;;;;;1.43;1.33;;;26.40;57.10;;;;;;5110489;28;20431;-78
2023/09/19 12:48:34;;;;;;;1.67;1.40;;;26.40;57.30;;;;;;5110157;28;20469;-78
2023/09/19 12:51:05;;;;;;;1.30;1.20;;;26.40;56.90;;;;;;5089920;28;20516;-79
2023/09/19 12:53:40;;;;;;;1.30;0.80;;;26.30;57.20;;;;;;5096245;28;20938;-79
2023/09/19 12:56:12;;;;;;;1.10;1.00;;;26.00;57.00;;;;;;5087954;28;21154;-79
2023/09/19 12:59:00;;;;;;;0.90;0.90;;;25.70;57.60;;;;;;5104405;28;20458;-79
2023/09/19 13:01:29;;;;;;;1.07;1.07;;;25.70;57.50;;;;;;5110289;27;20552;-79
2023/09/19 13:04:20;;;;;;;1.27;1.17;;;25.70;57.10;;;;;;5081014;28;20568;-78
2023/09/19 13:06:51;;;;;;;1.30;1.10;;;25.80;57.40;;;;;;5097480;28;20939;-70
2023/09/19 13:09:24;;;;;;;1.37;1.20;;;25.90;56.90;;;;;;5101081;28;20461;-72
2023/09/19 13:11:53;;;;;;;1.20;1.10;;;26.00;56.70;;;;;;5105251;28;20532;-70
2023/09/19 13:14:23;;;;;;;1.50;1.40;;;26.10;57.10;;;;;;5081279;28;20548;-71
2023/09/19 13:16:57;;;;;;;2.13;1.30;;;26.20;57.30;;;;;;5105247;28;20446;-70